Main page
METAR-TAF:

METAR-TAF

Airports :

Gdańsk, Poland

Gdańsk Lech Wałęsa Airport

latitude: 54-23N, longitude: 018-28E, elevation: 135 m

Current weather observation

The report was made 30 minutes ago, at 07:30 UTC
Wind 8 kt from the Northwest
Temperature 6°C
Humidity 61%
Pressure 1027 hPa
Visibility 10 km or more
no clouds below 1500 m and no cumulonimbus

METAR: EPGD 240730Z 31008KT CAVOK 06/M01 Q1027

Time: 09:00 (08:00 UTC)

Forecast

The report was made 2 hours and 30 minutes ago, at 05:30 UTC
Forecast valid from 24 at 06 UTC to 25 at 06 UTC
Wind 5 kt from the North/Northwest
Visibility 10 km or more
no clouds below 1500 m and no cumulonimbus
Becoming
from 24 at 19 UTC to 24 at 22 UTC
Wind 10 kt from the West

TAF: EPGD 240530Z 2406/2506 34005KT CAVOK BECMG 2419/2422 27010KT

Weather observations and forecasts of more than 4000 airports (METAR and TAF reports).

The available stations are represented by yellow and red dots on the map.

Hover mouse over dot to see the name of the station.

Then click to see weather observations and forecasts.

To change the map : click on the green buttons with a black cross to zoom in, on the green button with a dash to zoom out, or on the green arrows for adjacent maps.


METAR-TAF: